Time;durP1;ratioP1;P1;durP2;ratioP2;P2;SDS_P1;SDS_P2;PMS_P1;PMS_P2;Temp;Humidity;BMP_temperature;BMP_pressure;BME280_temperature;BME280_humidity;BME280_pressure;Samples;Min_cycle;Max_cycle;Signal;HPM_P1;HPM_P2
2023/02/08 00:01:18;;;;;;;3.87;2.17;;;4.20;99.90;;;4.69;49.07;103464.16;6138903;22;97548;-45
2023/02/08 00:03:43;;;;;;;5.90;3.10;;;4.30;99.90;;;4.82;51.24;103474.19;6136949;22;97086;-45
2023/02/08 00:06:10;;;;;;;6.83;2.93;;;4.30;99.90;;;4.79;48.80;103461.03;6141420;22;96953;-44
2023/02/08 00:08:37;;;;;;;4.53;2.67;;;4.30;99.90;;;4.80;50.07;103465.41;6138285;22;96929;-49
2023/02/08 00:11:04;;;;;;;3.93;2.53;;;4.30;99.90;;;4.72;48.32;103459.03;6143091;22;97840;-48
2023/02/08 00:13:31;;;;;;;4.73;2.43;;;4.30;99.90;;;4.67;47.81;103460.63;6138047;22;97337;-48
2023/02/08 00:15:57;;;;;;;3.70;2.90;;;4.30;99.90;;;4.58;49.80;103460.31;6144396;22;97244;-47
2023/02/08 00:18:23;;;;;;;6.30;3.40;;;4.20;99.90;;;4.47;48.41;103457.31;6153276;22;112432;-43
2023/02/08 00:20:51;;;;;;;4.00;2.87;;;4.10;99.90;;;4.51;50.06;103463.56;6151319;22;102399;-43
2023/02/08 00:23:17;;;;;;;6.37;3.10;;;4.00;99.90;;;4.49;49.10;103455.66;6140773;22;96853;-46
2023/02/08 00:25:43;;;;;;;3.63;2.80;;;4.00;99.90;;;4.55;52.42;103461.09;6150825;22;104929;-44
2023/02/08 00:28:13;;;;;;;5.80;2.97;;;4.00;99.90;;;4.52;49.29;103449.66;6154094;22;97952;-43
2023/02/08 00:30:40;;;;;;;6.23;3.37;;;4.00;99.90;;;4.59;49.56;103441.16;6150708;22;97846;-46
2023/02/08 00:33:06;;;;;;;7.53;3.33;;;4.10;99.90;;;4.60;50.34;103448.16;6153112;22;98582;-43
2023/02/08 00:35:32;;;;;;;4.93;2.47;;;4.10;99.90;;;4.53;48.96;103438.34;6151305;22;97204;-45
2023/02/08 00:37:58;;;;;;;9.10;3.67;;;4.10;99.90;;;4.53;48.64;103446.19;6154569;22;97330;-46
2023/02/08 00:40:25;;;;;;;7.63;3.80;;;4.10;99.90;;;4.45;48.12;103438.97;6154740;22;101533;-53
2023/02/08 00:42:51;;;;;;;5.77;3.00;;;4.00;99.90;;;4.59;50.64;103441.16;6155353;22;98118;-45
2023/02/08 00:45:17;;;;;;;6.93;2.63;;;4.10;99.90;;;4.60;50.76;103442.94;6157950;22;97117;-44
2023/02/08 00:47:43;;;;;;;10.50;3.87;;;4.10;99.90;;;4.54;48.27;103438.41;6152157;22;97450;-43
2023/02/08 00:50:09;;;;;;;6.07;3.47;;;4.10;99.90;;;4.51;47.34;103437.41;6154646;22;122757;-46
2023/02/08 00:52:36;;;;;;;5.97;3.20;;;4.10;99.90;;;4.42;48.60;103433.66;6153078;22;97463;-44
2023/02/08 00:55:03;;;;;;;6.13;3.37;;;4.00;99.90;;;4.45;49.31;103438.06;6155735;22;97166;-43
2023/02/08 00:57:32;;;;;;;5.23;3.37;;;4.00;99.90;;;4.47;52.55;103432.06;6152082;22;97092;-43
2023/02/08 00:59:57;;;;;;;5.87;3.30;;;4.00;99.90;;;4.53;50.94;103430.50;6155732;22;98381;-44
2023/02/08 01:02:23;;;;;;;5.53;3.00;;;4.00;99.90;;;4.58;52.54;103431.53;6155790;22;97141;-44
2023/02/08 01:04:49;;;;;;;6.73;3.40;;;4.00;99.90;;;4.56;50.67;103425.38;6152017;22;97108;-43
2023/02/08 01:07:15;;;;;;;3.90;2.47;;;4.10;99.90;;;4.62;52.00;103428.19;6156580;22;97281;-47
2023/02/08 01:09:41;;;;;;;5.87;3.03;;;4.10;99.90;;;4.88;55.56;103435.16;6126798;22;98080;-43
2023/02/08 01:12:07;;;;;;;4.90;2.77;;;4.20;99.90;;;4.87;50.98;103428.13;6155786;22;113900;-44
2023/02/08 01:14:33;;;;;;;7.03;3.00;;;4.20;99.90;;;4.89;52.75;103431.69;6152631;22;97462;-46
2023/02/08 01:16:59;;;;;;;4.27;2.67;;;4.30;99.90;;;4.90;48.32;103433.47;6156447;22;97150;-45
2023/02/08 01:19:24;;;;;;;3.27;2.27;;;4.30;99.90;;;4.84;51.76;103437.63;6149845;22;116359;-52
2023/02/08 01:21:50;;;;;;;5.80;2.70;;;4.20;99.90;;;4.70;48.91;103427.59;6154741;22;105473;-48
2023/02/08 01:24:16;;;;;;;5.93;2.93;;;4.20;99.90;;;4.61;49.13;103429.00;6156999;22;97453;-43
2023/02/08 01:26:42;;;;;;;3.40;2.77;;;4.10;99.90;;;4.53;48.78;103426.16;6152508;22;97005;-45
2023/02/08 01:29:08;;;;;;;7.17;3.30;;;4.00;99.90;;;4.41;48.33;103423.13;6155663;22;98735;-44
2023/02/08 01:31:38;;;;;;;4.80;1.80;;;4.00;99.90;;;4.27;49.12;103438.34;6126153;22;97651;-45
2023/02/08 01:34:05;;;;;;;4.97;3.23;;;3.90;99.90;;;4.14;48.88;103436.16;6127194;22;97452;-44
2023/02/08 01:36:32;;;;;;;6.60;2.97;;;3.80;99.90;;;4.09;49.23;103442.94;6153525;22;97068;-45
2023/02/08 01:38:58;;;;;;;5.63;2.90;;;3.80;99.90;;;3.97;49.86;103432.06;6154992;22;97883;-47
2023/02/08 01:41:31;;;;;;;3.07;2.13;;;3.70;99.90;;;3.92;51.08;103429.28;6155874;22;114667;-45
2023/02/08 01:44:18;;;;;;;7.67;3.23;;;3.60;99.90;;;3.84;49.96;103431.63;6151011;22;97056;-44
2023/02/08 01:46:49;;;;;;;6.07;3.03;;;3.60;99.90;;;3.84;51.35;103429.00;6153483;22;97071;-46
2023/02/08 01:49:27;;;;;;;5.00;2.67;;;3.60;99.90;;;3.79;50.26;103427.97;6155073;22;97597;-48
2023/02/08 01:52:13;;;;;;;9.87;3.63;;;3.50;99.90;;;3.76;50.09;103430.47;6148685;22;103350;-44
2023/02/08 01:55:05;;;;;;;6.53;3.13;;;3.50;99.90;;;3.68;50.31;103421.44;6126113;22;97487;-45
2023/02/08 01:57:31;;;;;;;4.80;2.90;;;3.40;99.90;;;3.68;50.63;103418.84;6126160;22;97152;-45
2023/02/08 02:00:07;;;;;;;4.83;3.27;;;3.40;99.90;;;3.72;52.17;103414.59;6154475;22;117301;-45
2023/02/08 02:02:36;;;;;;;3.57;2.13;;;3.40;99.90;;;3.77;51.02;103413.06;6125205;22;97668;-44
2023/02/08 02:05:02;;;;;;;4.13;2.23;;;3.40;99.90;;;3.82;51.55;103415.00;6128692;22;96892;-45
2023/02/08 02:07:29;;;;;;;4.17;2.57;;;3.40;99.90;;;3.78;50.91;103410.50;6152057;22;96888;-47
2023/02/08 02:10:06;;;;;;;2.77;2.33;;;3.40;99.90;;;3.70;50.31;103406.72;6154063;22;97029;-46
2023/02/08 02:12:34;;;;;;;4.73;2.57;;;3.40;99.90;;;3.67;51.00;103411.84;6125277;22;97737;-48
2023/02/08 02:15:02;;;;;;;3.17;2.33;;;3.30;99.90;;;3.65;50.81;103408.28;6128726;22;97020;-48
2023/02/08 02:17:28;;;;;;;5.20;3.03;;;3.30;99.90;;;3.64;51.05;103416.06;6152176;22;96878;-45
2023/02/08 02:20:23;;;;;;;5.83;2.20;;;3.30;99.90;;;3.60;50.92;103409.81;6127088;22;128284;-45
2023/02/08 02:23:16;;;;;;;5.63;2.87;;;3.30;99.90;;;3.57;49.73;103409.72;6122265;22;97670;-42
2023/02/08 02:26:07;;;;;;;4.43;2.37;;;3.20;99.90;;;3.57;50.92;103409.72;6151646;22;97053;-46
2023/02/08 02:28:58;;;;;;;4.90;2.63;;;3.20;99.90;;;3.64;50.97;103403.91;6152408;22;97524;-44
2023/02/08 02:31:57;;;;;;;9.43;3.63;;;3.30;99.90;;;3.66;50.51;103404.84;6155022;22;98827;-55
2023/02/08 02:34:50;;;;;;;3.03;2.10;;;3.30;99.90;;;3.67;52.01;103411.84;6153665;22;101266;-43
2023/02/08 02:37:48;;;;;;;6.53;2.80;;;3.30;99.90;;;3.64;51.57;103411.75;6150890;22;97106;-45
2023/02/08 02:40:29;;;;;;;10.60;2.87;;;3.20;99.90;;;3.67;51.77;103409.22;6150771;22;97139;-46
2023/02/08 02:46:34;;;;;;;4.33;2.83;;;3.30;99.90;;;3.66;50.80;103409.19;6128190;22;101650;-43
2023/02/08 02:49:36;;;;;;;14.43;3.20;;;3.20;99.90;;;3.62;50.19;103417.72;6123173;22;96876;-43
2023/02/08 02:52:32;;;;;;;7.50;2.57;;;3.20;99.90;;;3.53;50.18;103407.84;6151732;22;98082;-46
2023/02/08 02:55:13;;;;;;;5.63;2.97;;;3.20;99.90;;;3.51;50.52;103409.50;6126375;22;102748;-43
2023/02/08 02:57:41;;;;;;;4.63;2.77;;;3.10;99.90;;;3.48;50.12;103404.19;6125492;22;97789;-45
2023/02/08 03:00:10;;;;;;;5.20;2.77;;;3.10;99.90;;;3.49;50.72;103416.41;6129802;22;97164;-43
2023/02/08 03:02:36;;;;;;;4.63;2.33;;;3.10;99.90;;;3.50;50.21;103407.72;6124393;22;97119;-48
2023/02/08 03:05:02;;;;;;;5.20;3.30;;;3.10;99.90;;;3.46;51.31;103406.69;6127558;22;97520;-46
2023/02/08 03:07:31;;;;;;;4.47;2.40;;;3.10;99.90;;;3.46;50.93;103411.03;6152434;22;98385;-46
2023/02/08 03:10:14;;;;;;;4.13;2.40;;;3.10;99.90;;;3.40;49.90;103408.22;6155158;22;97023;-46
2023/02/08 03:13:14;;;;;;;5.80;3.00;;;3.00;99.90;;;3.41;50.80;103402.16;6152667;22;97468;-45
2023/02/08 03:16:26;;;;;;;6.07;2.87;;;3.00;99.90;;;3.44;51.66;103397.03;6151427;22;97634;-46
2023/02/08 03:19:16;;;;;;;6.43;2.47;;;3.00;99.90;;;3.49;52.34;103401.63;6122768;22;101041;-46
2023/02/08 03:21:54;;;;;;;5.47;2.37;;;3.00;99.90;;;3.54;52.03;103405.28;6151837;22;97517;-44
2023/02/08 03:24:36;;;;;;;6.70;3.17;;;3.10;99.90;;;3.52;51.16;103412.16;6130298;22;96773;-48
2023/02/08 03:27:22;;;;;;;5.30;3.20;;;3.10;99.90;;;3.52;50.76;103412.16;6125260;22;101348;-47
2023/02/08 03:30:29;;;;;;;5.10;2.63;;;3.10;99.90;;;3.52;51.03;103406.06;6151234;22;97213;-46
2023/02/08 03:33:31;;;;;;;5.57;2.90;;;3.10;99.90;;;3.50;51.13;103397.28;6124882;22;97331;-43
2023/02/08 03:36:31;;;;;;;8.97;3.23;;;3.10;99.90;;;3.47;50.36;103405.91;6150975;22;96957;-45
2023/02/08 03:39:00;;;;;;;7.60;3.13;;;3.00;99.90;;;3.44;50.55;103395.31;6150757;22;101545;-46
2023/02/08 03:41:35;;;;;;;9.60;3.97;;;3.00;99.90;;;3.44;50.15;103397.03;6125510;22;97005;-48
2023/02/08 03:44:09;;;;;;;7.73;3.07;;;3.10;99.90;;;3.37;49.05;103398.56;6128479;22;97519;-46
2023/02/08 03:46:49;;;;;;;11.60;3.23;;;3.10;99.90;;;3.37;49.47;103402.88;6127020;22;96944;-45
2023/02/08 03:49:21;;;;;;;5.87;2.73;;;3.10;99.90;;;3.35;50.39;103412.38;6155153;22;97002;-48
2023/02/08 03:51:49;;;;;;;2.60;2.10;;;3.00;99.90;;;3.34;51.79;103400.16;6126252;22;97322;-45
2023/02/08 03:54:21;;;;;;;6.20;2.47;;;3.00;99.90;;;3.29;50.19;103403.47;6155843;22;97065;-49
2023/02/08 03:57:17;;;;;;;3.17;2.27;;;3.00;99.90;;;3.28;51.29;103401.69;6124659;22;97375;-48
2023/02/08 03:59:50;;;;;;;4.00;2.67;;;2.90;99.90;;;3.33;50.79;103401.88;6150512;22;98053;-44
2023/02/08 04:02:20;;;;;;;10.10;3.43;;;3.00;99.90;;;3.32;50.10;103404.41;6155750;22;97026;-43
2023/02/08 04:04:49;;;;;;;4.80;2.20;;;3.00;99.90;;;3.38;53.05;103407.25;6125374;22;96935;-47
2023/02/08 04:07:18;;;;;;;3.87;2.67;;;2.90;99.90;;;3.33;51.11;103408.78;6128598;22;97339;-46
2023/02/08 04:09:44;;;;;;;7.97;2.60;;;2.90;99.90;;;3.38;50.66;103407.25;6126283;22;97258;-43
2023/02/08 04:12:10;;;;;;;3.00;2.70;;;3.00;99.90;;;3.36;51.93;103404.59;6156478;22;102777;-43
2023/02/08 04:14:36;;;;;;;2.90;1.70;;;3.00;99.90;;;3.35;51.54;103397.59;6152931;22;96610;-44
2023/02/08 04:17:02;;;;;;;5.67;2.33;;;3.00;99.90;;;3.34;50.50;103400.16;6129181;22;97150;-43
2023/02/08 04:19:28;;;;;;;2.93;2.10;;;3.00;99.90;;;3.34;50.73;103405.38;6153588;22;97334;-46
2023/02/08 04:21:54;;;;;;;4.53;2.40;;;3.00;99.90;;;3.28;49.72;103404.31;6157286;22;97071;-43
2023/02/08 04:24:20;;;;;;;4.77;2.33;;;3.00;99.90;;;3.18;48.42;103401.28;6155563;22;99268;-44
2023/02/08 04:26:46;;;;;;;4.20;2.83;;;2.90;99.90;;;3.13;49.30;103402.81;6154067;22;99427;-43
2023/02/08 04:29:12;;;;;;;4.40;3.00;;;2.80;99.90;;;3.12;48.58;103403.66;6155530;22;98570;-47
2023/02/08 04:31:38;;;;;;;2.80;2.07;;;2.90;99.90;;;3.05;49.61;103402.56;6153615;22;97361;-46
2023/02/08 04:34:03;;;;;;;5.90;2.80;;;2.80;99.90;;;3.06;49.89;103412.16;6155026;22;97377;-45
2023/02/08 04:36:29;;;;;;;6.53;2.03;;;2.80;99.90;;;3.10;52.04;103406.22;6153629;22;97078;-45
2023/02/08 04:38:55;;;;;;;5.73;3.30;;;2.80;99.90;;;3.09;52.70;103404.44;6157898;22;97392;-43
2023/02/08 04:41:21;;;;;;;8.07;3.30;;;2.80;99.90;;;3.02;51.33;103417.16;6157567;22;97442;-47
2023/02/08 04:43:47;;;;;;;5.43;3.03;;;2.70;99.90;;;3.00;51.21;103409.28;6154454;22;96951;-45
2023/02/08 04:46:13;;;;;;;8.80;2.47;;;2.70;99.90;;;2.97;51.27;103411.78;6158880;22;97350;-48
2023/02/08 04:48:39;;;;;;;4.30;2.43;;;2.70;99.90;;;3.01;50.58;103411.06;6151749;22;97009;-47
2023/02/08 04:51:05;;;;;;;2.47;1.83;;;2.70;99.90;;;3.05;51.96;103406.88;6158472;22;97729;-48
2023/02/08 04:53:31;;;;;;;3.87;1.77;;;2.70;99.90;;;2.94;50.93;103407.34;6153782;22;96937;-43
2023/02/08 04:55:57;;;;;;;6.20;3.33;;;2.70;99.90;;;2.89;50.44;103405.34;6157421;22;105443;-44
2023/02/08 04:58:23;;;;;;;5.57;2.40;;;2.60;99.90;;;2.92;50.92;103405.50;6155749;22;115266;-45
2023/02/08 05:00:48;;;;;;;4.27;3.17;;;2.60;99.90;;;2.94;51.31;103399.50;6150770;22;97253;-43
2023/02/08 05:03:15;;;;;;;3.87;2.27;;;2.60;99.90;;;2.94;51.04;103398.63;6153564;22;97395;-44
2023/02/08 05:05:40;;;;;;;4.27;2.77;;;2.60;99.90;;;2.90;51.24;103397.63;6153801;22;97864;-43
2023/02/08 05:08:07;;;;;;;10.63;2.07;;;2.60;99.90;;;3.02;52.25;103398.91;6156060;22;99323;-47
2023/02/08 05:10:33;;;;;;;5.93;2.50;;;2.60;99.90;;;2.93;51.10;103397.75;6124434;22;110399;-45
2023/02/08 05:12:58;;;;;;;4.63;2.50;;;2.70;99.90;;;2.89;50.90;103397.53;6156083;22;96929;-46
2023/02/08 05:15:24;;;;;;;4.37;1.67;;;2.60;99.90;;;2.86;51.80;103405.25;6157325;22;97192;-43
2023/02/08 05:17:50;;;;;;;16.67;2.80;;;2.60;99.90;;;2.86;51.48;103410.47;6100669;22;98888;-46
2023/02/08 05:20:16;;;;;;;6.23;2.63;;;2.60;99.90;;;2.84;52.49;103407.78;6155211;22;98050;-48
2023/02/08 05:22:41;;;;;;;6.47;2.20;;;2.50;99.90;;;2.91;52.74;103408.94;6151641;22;97005;-45
2023/02/08 05:25:08;;;;;;;9.47;3.20;;;2.60;99.90;;;2.91;53.37;103415.03;6157022;22;97255;-43
2023/02/08 05:27:34;;;;;;;7.67;2.63;;;2.50;99.90;;;3.01;55.76;103416.28;6150698;22;97045;-47
2023/02/08 05:30:00;;;;;;;7.33;2.80;;;2.50;99.90;;;2.87;51.72;103412.22;6156790;22;97484;-46
2023/02/08 05:32:26;;;;;;;7.83;3.23;;;2.50;99.90;;;2.79;51.10;103408.44;6148286;22;96914;-56
2023/02/08 05:34:52;;;;;;;10.57;2.83;;;2.50;99.90;;;2.78;51.85;103406.69;6154889;22;96864;-46
2023/02/08 05:37:18;;;;;;;7.17;2.53;;;2.40;99.90;;;2.79;51.32;103398.03;6158651;22;96519;-43
2023/02/08 05:39:43;;;;;;;7.63;3.60;;;2.50;99.90;;;2.80;51.28;103397.19;6154320;22;97031;-43
2023/02/08 05:42:09;;;;;;;4.80;3.10;;;2.50;99.90;;;2.74;51.16;103402.16;6130026;22;102250;-42
2023/02/08 05:44:35;;;;;;;5.17;2.50;;;2.50;99.90;;;2.75;51.65;103407.44;6155003;22;97240;-49
2023/02/08 05:47:02;;;;;;;6.37;2.47;;;2.50;99.90;;;2.76;52.40;103409.22;6158195;22;97091;-47
2023/02/08 05:49:28;;;;;;;6.00;2.53;;;2.50;99.90;;;2.80;50.82;103402.41;6154156;22;98140;-46
2023/02/08 05:51:54;;;;;;;6.43;3.00;;;2.50;99.90;;;2.75;50.35;103406.53;6158928;22;97247;-44
2023/02/08 05:54:20;;;;;;;3.37;2.40;;;2.50;99.90;;;2.71;51.14;103409.84;6158337;22;96703;-46
2023/02/08 05:56:46;;;;;;;5.60;2.77;;;2.50;99.90;;;2.64;51.06;103401.78;6155592;22;97062;-47
2023/02/08 05:59:12;;;;;;;4.27;2.97;;;2.40;99.90;;;2.63;50.91;103397.41;6158364;22;96998;-46
2023/02/08 06:01:38;;;;;;;5.10;2.57;;;2.40;99.90;;;2.66;51.38;103392.31;6154876;22;97853;-43
2023/02/08 06:04:04;;;;;;;2.83;2.40;;;2.40;99.90;;;2.63;51.48;103400.03;6159125;22;100102;-43
2023/02/08 06:06:30;;;;;;;5.57;2.77;;;2.40;99.90;;;2.58;50.04;103404.13;6154988;22;97172;-45
2023/02/08 06:08:56;;;;;;;6.03;2.40;;;2.40;99.90;;;2.56;51.42;103411.00;6158007;22;97097;-47
2023/02/08 06:11:21;;;;;;;7.70;2.37;;;2.40;99.90;;;2.54;50.79;103402.22;6158851;22;96985;-42
2023/02/08 06:13:47;;;;;;;5.77;2.70;;;2.40;99.90;;;2.54;51.39;103407.44;6154328;22;97312;-45
2023/02/08 06:16:14;;;;;;;5.70;2.27;;;2.30;99.90;;;2.56;51.55;103405.78;6158986;22;119385;-43
2023/02/08 06:18:40;;;;;;;4.63;2.43;;;2.30;99.90;;;2.58;51.11;103411.06;6151987;22;97566;-44
2023/02/08 06:21:07;;;;;;;4.33;2.50;;;2.40;99.90;;;2.60;50.86;103407.72;6158652;22;97245;-47
2023/02/08 06:23:32;;;;;;;5.33;2.67;;;2.40;99.90;;;2.60;51.75;103412.94;6127476;22;96869;-43
2023/02/08 06:25:58;;;;;;;3.43;2.30;;;2.40;99.90;;;2.62;52.59;103413.88;6157344;22;97160;-44
2023/02/08 06:28:24;;;;;;;17.57;2.57;;;2.40;99.90;;;2.61;52.52;103408.59;6158319;22;97315;-44
2023/02/08 06:30:51;;;;;;;5.60;2.43;;;2.30;99.90;;;2.65;52.88;103415.72;6156050;22;97162;-46
2023/02/08 06:33:18;;;;;;;4.57;3.00;;;2.30;99.90;;;2.66;52.25;103407.06;6157462;22;97072;-43
2023/02/08 06:35:50;;;;;;;4.33;2.57;;;2.30;99.90;;;2.73;52.01;103418.63;6154156;22;96879;-44
2023/02/08 06:38:16;;;;;;;6.33;2.40;;;2.40;99.90;;;2.69;50.83;103410.69;6131006;22;97267;-48
2023/02/08 06:40:42;;;;;;;5.00;2.50;;;2.40;99.90;;;2.66;50.33;103407.94;6126453;22;97182;-44
2023/02/08 06:43:08;;;;;;;4.43;2.53;;;2.40;99.90;;;2.63;50.65;103413.06;6159958;22;97513;-46
2023/02/08 06:45:34;;;;;;;11.13;2.70;;;2.40;99.90;;;2.53;50.63;103413.50;6153510;22;97274;-47
2023/02/08 06:47:59;;;;;;;3.70;2.13;;;2.30;99.90;;;2.52;50.58;103405.63;6156568;22;97363;-51
2023/02/08 06:50:25;;;;;;;5.27;3.07;;;2.30;99.90;;;2.47;50.62;103408.03;6158452;22;97855;-42
2023/02/08 06:52:51;;;;;;;6.80;2.60;;;2.30;99.90;;;2.50;52.00;103405.56;6153752;22;97664;-44
2023/02/08 06:55:17;;;;;;;3.83;2.37;;;2.20;99.90;;;2.46;51.71;103408.88;6158615;22;97185;-48
2023/02/08 06:57:43;;;;;;;4.03;2.73;;;2.20;99.90;;;2.49;51.34;103413.31;6153917;22;98429;-44
2023/02/08 07:00:09;;;;;;;4.77;2.23;;;2.30;99.90;;;2.49;51.11;103411.59;6157877;22;97021;-43
2023/02/08 07:02:35;;;;;;;5.47;3.10;;;2.40;99.90;;;2.45;51.93;103407.06;6154087;22;97229;-42
2023/02/08 07:05:01;;;;;;;2.77;2.20;;;2.30;99.90;;;2.46;51.68;103403.66;6148341;22;115696;-46
2023/02/08 07:07:27;;;;;;;4.00;2.20;;;2.30;99.90;;;2.48;50.34;103407.22;6154629;22;101073;-44
2023/02/08 07:09:53;;;;;;;7.80;3.53;;;2.30;99.90;;;2.50;51.70;103387.31;6150998;22;107502;-44
2023/02/08 07:12:19;;;;;;;8.70;3.07;;;2.20;99.90;;;2.53;51.00;103394.34;6155320;22;97362;-48
2023/02/08 07:14:45;;;;;;;4.93;3.00;;;2.20;99.90;;;2.56;52.09;103395.38;6154275;22;97434;-45
2023/02/08 07:17:12;;;;;;;5.70;3.00;;;2.30;99.90;;;2.65;52.31;103387.03;6158960;22;103770;-47
2023/02/08 07:19:39;;;;;;;5.60;3.07;;;2.30;99.90;;;2.72;52.18;103395.97;6153711;22;97309;-46
2023/02/08 07:22:08;;;;;;;6.70;3.73;;;2.40;99.90;;;2.67;51.60;103391.47;6155836;22;96773;-47
2023/02/08 07:24:37;;;;;;;8.40;3.40;;;2.40;99.90;;;2.67;51.13;103401.91;6136073;22;97718;-46
2023/02/08 07:27:05;;;;;;;4.27;2.77;;;2.40;99.90;;;2.69;50.60;103400.25;6142345;22;97417;-46
2023/02/08 07:29:32;;;;;;;14.93;3.40;;;2.40;99.90;;;2.71;50.84;103394.22;6137158;22;97488;-48
2023/02/08 07:32:00;;;;;;;3.47;2.47;;;2.40;99.90;;;2.69;50.66;103397.66;6147795;22;97807;-44
2023/02/08 07:34:30;;;;;;;3.73;2.67;;;2.40;99.90;;;2.79;51.52;103387.59;6145356;22;97471;-45
2023/02/08 07:36:56;;;;;;;5.60;3.00;;;2.50;99.90;;;2.68;51.73;103390.66;6142095;22;101161;-45
2023/02/08 07:39:22;;;;;;;2.57;2.20;;;2.40;99.90;;;2.77;51.72;103390.16;6141263;22;99765;-45
2023/02/08 07:41:48;;;;;;;6.13;2.93;;;2.50;99.90;;;2.82;51.41;103390.31;6140777;22;97292;-46
2023/02/08 07:44:14;;;;;;;5.30;3.43;;;2.50;99.90;;;2.84;51.99;103393.88;6147872;22;97403;-50
2023/02/08 07:46:40;;;;;;;3.93;2.40;;;2.50;99.90;;;2.85;50.98;103387.81;6139832;22;97612;-44
2023/02/08 07:49:06;;;;;;;10.20;3.53;;;2.50;99.90;;;2.86;51.55;103384.38;6142064;22;97228;-48
2023/02/08 07:51:32;;;;;;;9.50;3.43;;;2.50;99.90;;;2.88;51.46;103382.72;6140758;22;97329;-44
2023/02/08 07:53:58;;;;;;;3.77;2.10;;;2.50;99.90;;;2.85;51.10;103378.28;6150967;22;97638;-44
2023/02/08 07:56:24;;;;;;;4.30;3.13;;;2.60;99.90;;;2.87;50.53;103380.94;6134896;22;102796;-44
2023/02/08 07:58:50;;;;;;;4.70;2.97;;;2.60;99.90;;;2.96;51.77;103383.94;6143761;22;97185;-46
2023/02/08 08:01:16;;;;;;;3.07;2.13;;;2.60;99.90;;;3.01;52.12;103381.47;6114700;22;97813;-44
2023/02/08 08:03:42;;;;;;;3.97;2.57;;;2.70;99.90;;;3.07;52.05;103380.03;6144514;22;97453;-46
2023/02/08 08:06:08;;;;;;;5.53;3.23;;;2.80;99.90;;;3.22;51.74;103380.59;6141692;22;97095;-47
2023/02/08 08:08:34;;;;;;;8.70;3.03;;;2.90;99.90;;;3.26;51.09;103381.59;6143380;22;96559;-44
2023/02/08 08:11:00;;;;;;;5.53;3.13;;;3.00;99.90;;;3.32;52.37;103375.72;6145871;22;96944;-46
2023/02/08 08:13:25;;;;;;;4.17;2.27;;;3.00;99.90;;;3.35;50.78;103386.28;6140977;22;98529;-47
2023/02/08 08:15:51;;;;;;;6.13;2.57;;;3.10;99.90;;;3.38;49.94;103381.16;6119815;22;97142;-47
2023/02/08 08:18:17;;;;;;;6.13;3.07;;;3.10;99.90;;;3.42;49.59;103388.28;6141215;22;97099;-46
2023/02/08 08:20:43;;;;;;;6.40;3.27;;;3.20;99.90;;;3.40;50.70;103385.59;6096020;22;96662;-43
2023/02/08 08:23:09;;;;;;;7.80;4.67;;;3.20;99.90;;;3.37;49.92;103384.63;6115195;22;96619;-46
2023/02/08 08:25:37;;;;;;;8.57;5.13;;;3.20;99.90;;;3.41;50.23;103389.09;6143515;22;97062;-43
2023/02/08 08:28:03;;;;;;;12.10;5.37;;;3.20;99.90;;;3.40;51.58;103379.50;6147265;22;98404;-43
2023/02/08 08:30:29;;;;;;;5.97;3.13;;;3.20;99.90;;;3.40;51.39;103380.38;6114644;22;96968;-47
2023/02/08 08:32:55;;;;;;;5.13;2.57;;;3.20;99.90;;;3.45;50.24;103383.16;6143996;22;97757;-47
2023/02/08 08:35:21;;;;;;;4.00;2.47;;;3.30;99.90;;;3.52;50.19;103383.47;6141495;22;97216;-44
2023/02/08 08:37:47;;;;;;;3.40;2.17;;;3.40;99.90;;;3.54;49.92;103383.50;6147984;22;97341;-44
2023/02/08 08:40:13;;;;;;;6.57;3.57;;;3.40;99.90;;;3.59;48.79;103382.81;6142131;22;96897;-43
2023/02/08 08:42:39;;;;;;;7.67;3.43;;;3.40;99.90;;;3.68;50.13;103377.06;6144982;22;96981;-44
2023/02/08 08:45:06;;;;;;;4.17;2.67;;;3.60;99.90;;;3.71;49.69;103369.34;6144010;22;97519;-44
2023/02/08 08:47:32;;;;;;;4.10;2.70;;;3.60;99.90;;;3.72;49.22;103378.94;6140850;22;96656;-45
2023/02/08 08:49:58;;;;;;;4.57;2.90;;;3.60;99.90;;;3.73;49.78;103375.50;6146770;22;97886;-45
2023/02/08 08:52:24;;;;;;;5.20;2.70;;;3.60;99.90;;;3.77;48.70;103377.41;6140002;22;97273;-49
2023/02/08 08:54:50;;;;;;;10.00;2.67;;;3.60;99.90;;;3.80;48.61;103381.84;6146092;22;97350;-44
2023/02/08 08:57:16;;;;;;;6.23;3.27;;;3.70;99.90;;;3.85;48.95;103375.03;6141537;22;97714;-49
2023/02/08 08:59:42;;;;;;;6.53;2.87;;;3.80;99.90;;;3.94;49.26;103374.50;6145822;22;102179;-49
2023/02/08 09:02:12;;;;;;;4.33;2.67;;;3.80;99.90;;;4.00;49.26;103365.13;6143592;22;97419;-45
2023/02/08 09:04:39;;;;;;;4.97;2.90;;;3.90;99.90;;;4.05;48.70;103368.81;6144563;22;97182;-46
2023/02/08 09:07:06;;;;;;;8.30;2.53;;;3.90;99.90;;;4.06;47.59;103374.91;6147969;22;98090;-45
2023/02/08 09:09:32;;;;;;;4.20;2.43;;;4.00;99.90;;;4.08;47.66;103368.91;6142788;22;97155;-44
2023/02/08 09:11:58;;;;;;;8.23;3.47;;;4.00;99.90;;;4.12;47.38;103373.38;6145741;22;96672;-46
2023/02/08 09:14:24;;;;;;;4.27;2.67;;;4.10;99.90;;;4.17;47.04;103368.31;6141239;22;97677;-45
2023/02/08 09:16:51;;;;;;;3.40;2.50;;;4.10;99.90;;;4.26;45.87;103368.63;6147433;22;97425;-48
2023/02/08 09:19:17;;;;;;;5.70;2.97;;;4.30;99.90;;;4.39;49.62;103381.28;6142322;22;96732;-44
2023/02/08 09:21:43;;;;;;;5.77;2.70;;;4.30;99.90;;;4.47;46.25;103377.16;6146742;22;98045;-47
2023/02/08 09:24:10;;;;;;;9.70;2.30;;;4.40;99.90;;;4.54;46.28;103375.66;6141033;22;96925;-46
2023/02/08 09:26:37;;;;;;;5.20;3.33;;;4.50;99.90;;;4.63;45.70;103378.56;6146957;22;97552;-49
2023/02/08 09:29:05;;;;;;;5.30;3.07;;;4.60;99.90;;;4.72;47.40;103370.13;6147950;22;97469;-45
2023/02/08 09:31:36;;;;;;;7.03;3.73;;;4.70;99.90;;;4.89;48.03;103378.47;6141336;22;97693;-47
2023/02/08 09:34:05;;;;;;;6.90;3.53;;;4.80;99.90;;;4.97;45.59;103371.75;6146434;22;96962;-48
2023/02/08 09:36:36;;;;;;;5.40;3.20;;;4.90;99.90;;;5.08;44.92;103376.50;6144704;22;97223;-44
2023/02/08 09:39:15;;;;;;;8.83;2.93;;;5.00;99.90;;;5.39;44.52;103366.91;6146009;22;97246;-48
2023/02/08 09:42:02;;;;;;;4.43;2.70;;;5.30;99.90;;;5.66;46.25;103357.22;6140154;22;101743;-44
2023/02/08 09:44:51;;;;;;;4.17;2.57;;;5.50;99.90;;;5.83;43.82;103364.66;6143058;22;97092;-44
2023/02/08 09:47:40;;;;;;;5.03;2.53;;;5.70;99.30;;;6.39;46.10;103367.88;6142920;22;97314;-44
2023/02/08 09:50:34;;;;;;;4.60;2.90;;;6.20;99.90;;;6.81;48.88;103373.25;6146434;22;96866;-50
2023/02/08 09:53:19;;;;;;;5.80;2.57;;;6.50;99.90;;;6.79;39.77;103365.31;6116539;22;102993;-47
2023/02/08 09:55:55;;;;;;;7.07;2.77;;;6.50;96.70;;;6.79;39.39;103360.06;6116075;22;99788;-49
2023/02/08 09:58:28;;;;;;;5.10;2.17;;;6.60;96.10;;;7.18;50.93;103358.31;6115528;22;97273;-47
2023/02/08 10:00:54;;;;;;;3.17;2.13;;;6.80;97.90;;;7.39;44.82;103364.91;6147171;22;96907;-46
2023/02/08 10:03:40;;;;;;;3.13;1.67;;;7.00;97.00;;;7.52;49.71;103354.63;6145145;22;97985;-49
2023/02/08 10:06:11;;;;;;;4.53;2.40;;;7.10;98.90;;;7.59;43.43;103356.53;6147283;22;97448;-48
2023/02/08 10:08:38;;;;;;;4.43;2.27;;;7.20;95.70;;;7.86;38.75;103345.66;6139918;22;97580;-45
2023/02/08 10:11:47;;;;;;;3.47;2.23;;;7.50;95.30;;;8.16;48.78;103351.44;6148093;22;97005;-46
2023/02/08 10:14:46;;;;;;;7.00;2.33;;;7.60;97.60;;;8.34;46.50;103357.03;6140415;22;101713;-49
2023/02/08 10:17:48;;;;;;;6.47;2.57;;;7.80;95.20;;;8.28;38.62;103353.41;6142198;22;97744;-45
2023/02/08 10:20:29;;;;;;;5.17;2.40;;;7.90;93.00;;;8.15;36.34;103356.69;6115320;22;96905;-46
2023/02/08 10:24:02;;;;;;;4.60;2.43;;;7.90;92.80;;;8.03;36.82;103350.34;6147741;22;96505;-44
2023/02/08 10:26:52;;;;;;;5.10;2.53;;;7.80;92.60;;;8.02;39.71;103352.94;5988861;23;102817;-50
2023/02/08 10:29:36;;;;;;;5.43;2.97;;;7.80;93.10;;;8.01;39.21;103346.81;6114300;22;96867;-47
2023/02/08 10:32:34;;;;;;;3.13;2.23;;;7.80;93.30;;;8.13;37.77;103345.25;6147328;22;101452;-46
2023/02/08 10:35:07;;;;;;;4.63;2.53;;;7.90;92.30;;;8.12;36.93;103346.13;6116372;22;96990;-43
2023/02/08 10:37:37;;;;;;;4.50;2.70;;;8.00;92.20;;;8.22;36.64;103345.38;6113783;22;100989;-47
2023/02/08 10:40:37;;;;;;;6.47;2.17;;;8.20;91.50;;;8.29;35.60;103339.38;6117286;22;98009;-44
2023/02/08 10:43:11;;;;;;;6.50;2.70;;;8.30;91.20;;;8.46;35.96;103342.31;6117109;22;97288;-46
2023/02/08 10:46:03;;;;;;;4.27;2.50;;;8.40;91.30;;;8.51;36.71;103348.53;6115058;22;97309;-44